logo
Search for airport 
image banner adimage banner adimage banner ad
image banner ad

MMLAN - Los Angeles

Located in Ciudad Acuña, Mexico

ICAO - , IATA -

Data provided by Airmate  

General information

Coordinates: N29°30'2" W101°40'3"
Elevation is 1771 feet MSL.
Magnetic variation is 5° East
View others Airports in Coahuila

Operational data

Special qualification required
Current time UTC:
Current local time:
Weather at : KDRT - Del Rio Intl ( 73 km )
METAR: KDRT 180753Z AUTO 09007KT 8SM CLR 24/21 A2986 RMK AO2 SLP101 T02440206 $
TAF: KDRT 180534Z 1806/1906 11007KT P6SM BKN200 FM181000 11006KT P6SM BKN015 FM181200 11006KT P6SM OVC009 FM181500 13007KT P6SM BKN015 BKN250 FM181700 13007KT P6SM SCT250 PROB30 1823/1903 -TSRA BKN050CB
View NOTAMs / SUP AIP / TFR affecting this airport [VIEW]
Communications frequencies: [VIEW]

Runways:

RWY identifierQFULength (ft)Width (ft)SurfaceLDA (ft)
25258°398671DIRT
0778°398671DIRT
14148°197344DIRT
32328°197344DIRT

Airport contact information

Address: Ciudad Acuña Mexico

Satellite view of MMLAN